sensor_id;sensor_type;location;lat;lon;timestamp;P1;durP1;ratioP1;P2;durP2;ratioP2
6121;SDS011;3091;51.506;7.672;2023-04-01T00:00:32;73.13;;;69.00;;
6121;SDS011;3091;51.506;7.672;2023-04-01T00:02:58;69.63;;;65.63;;
6121;SDS011;3091;51.506;7.672;2023-04-01T00:05:25;70.30;;;66.20;;
6121;SDS011;3091;51.506;7.672;2023-04-01T00:07:51;70.47;;;66.47;;
6121;SDS011;3091;51.506;7.672;2023-04-01T00:10:17;66.20;;;62.33;;
6121;SDS011;3091;51.506;7.672;2023-04-01T00:12:43;61.90;;;57.60;;
6121;SDS011;3091;51.506;7.672;2023-04-01T00:15:10;56.97;;;53.47;;
6121;SDS011;3091;51.506;7.672;2023-04-01T00:17:36;56.13;;;52.63;;
6121;SDS011;3091;51.506;7.672;2023-04-01T00:20:03;54.97;;;51.37;;
6121;SDS011;3091;51.506;7.672;2023-04-01T00:22:29;55.83;;;52.33;;
6121;SDS011;3091;51.506;7.672;2023-04-01T00:24:55;53.60;;;50.20;;
6121;SDS011;3091;51.506;7.672;2023-04-01T00:27:21;55.63;;;51.70;;
6121;SDS011;3091;51.506;7.672;2023-04-01T00:29:47;55.43;;;52.03;;
6121;SDS011;3091;51.506;7.672;2023-04-01T00:32:13;54.40;;;51.00;;
6121;SDS011;3091;51.506;7.672;2023-04-01T00:34:40;55.67;;;52.17;;
6121;SDS011;3091;51.506;7.672;2023-04-01T00:37:06;54.03;;;50.63;;
6121;SDS011;3091;51.506;7.672;2023-04-01T00:39:33;54.13;;;50.73;;
6121;SDS011;3091;51.506;7.672;2023-04-01T00:41:59;52.77;;;49.43;;
6121;SDS011;3091;51.506;7.672;2023-04-01T00:44:27;51.93;;;48.63;;
6121;SDS011;3091;51.506;7.672;2023-04-01T00:46:53;50.90;;;47.20;;
6121;SDS011;3091;51.506;7.672;2023-04-01T00:49:20;48.40;;;45.20;;
6121;SDS011;3091;51.506;7.672;2023-04-01T00:51:48;46.80;;;43.70;;
6121;SDS011;3091;51.506;7.672;2023-04-01T00:54:16;46.73;;;43.53;;
6121;SDS011;3091;51.506;7.672;2023-04-01T00:56:45;45.73;;;42.63;;
6121;SDS011;3091;51.506;7.672;2023-04-01T00:59:14;46.67;;;43.30;;
6121;SDS011;3091;51.506;7.672;2023-04-01T01:01:42;45.07;;;42.07;;
6121;SDS011;3091;51.506;7.672;2023-04-01T01:04:20;44.73;;;41.73;;
6121;SDS011;3091;51.506;7.672;2023-04-01T01:06:50;42.37;;;39.47;;
6121;SDS011;3091;51.506;7.672;2023-04-01T01:09:27;40.50;;;37.80;;
6121;SDS011;3091;51.506;7.672;2023-04-01T01:11:58;40.50;;;37.50;;
6121;SDS011;3091;51.506;7.672;2023-04-01T01:17:12;38.87;;;36.07;;
6121;SDS011;3091;51.506;7.672;2023-04-01T01:24:56;37.70;;;35.10;;
6121;SDS011;3091;51.506;7.672;2023-04-01T01:27:23;38.00;;;35.40;;
6121;SDS011;3091;51.506;7.672;2023-04-01T01:30:06;37.27;;;34.67;;
6121;SDS011;3091;51.506;7.672;2023-04-01T01:37:33;39.40;;;36.80;;
6121;SDS011;3091;51.506;7.672;2023-04-01T01:40:01;38.07;;;35.40;;
6121;SDS011;3091;51.506;7.672;2023-04-01T01:42:27;39.93;;;37.23;;
6121;SDS011;3091;51.506;7.672;2023-04-01T01:44:55;41.30;;;38.50;;
6121;SDS011;3091;51.506;7.672;2023-04-01T01:47:22;39.43;;;36.73;;
6121;SDS011;3091;51.506;7.672;2023-04-01T01:49:49;39.70;;;37.00;;
6121;SDS011;3091;51.506;7.672;2023-04-01T01:52:17;41.53;;;38.73;;
6121;SDS011;3091;51.506;7.672;2023-04-01T01:54:49;40.40;;;37.63;;
6121;SDS011;3091;51.506;7.672;2023-04-01T01:57:16;40.57;;;37.77;;
6121;SDS011;3091;51.506;7.672;2023-04-01T01:59:43;40.77;;;37.97;;
6121;SDS011;3091;51.506;7.672;2023-04-01T02:02:10;42.27;;;39.37;;
6121;SDS011;3091;51.506;7.672;2023-04-01T02:04:39;45.80;;;42.90;;
6121;SDS011;3091;51.506;7.672;2023-04-01T02:07:17;42.33;;;39.53;;
6121;SDS011;3091;51.506;7.672;2023-04-01T02:09:44;43.70;;;40.70;;
6121;SDS011;3091;51.506;7.672;2023-04-01T02:12:12;46.40;;;43.50;;
6121;SDS011;3091;51.506;7.672;2023-04-01T02:17:13;47.57;;;44.57;;
6121;SDS011;3091;51.506;7.672;2023-04-01T02:19:42;39.57;;;36.87;;
6121;SDS011;3091;51.506;7.672;2023-04-01T02:22:11;39.17;;;36.37;;
6121;SDS011;3091;51.506;7.672;2023-04-01T02:24:39;40.67;;;37.87;;
6121;SDS011;3091;51.506;7.672;2023-04-01T02:27:05;47.07;;;43.50;;
6121;SDS011;3091;51.506;7.672;2023-04-01T02:29:31;44.30;;;41.40;;
6121;SDS011;3091;51.506;7.672;2023-04-01T02:31:57;43.90;;;41.10;;
6121;SDS011;3091;51.506;7.672;2023-04-01T02:34:24;41.93;;;39.23;;
6121;SDS011;3091;51.506;7.672;2023-04-01T02:36:50;39.67;;;37.07;;
6121;SDS011;3091;51.506;7.672;2023-04-01T02:39:17;39.53;;;36.93;;
6121;SDS011;3091;51.506;7.672;2023-04-01T02:41:43;36.20;;;33.70;;
6121;SDS011;3091;51.506;7.672;2023-04-01T02:44:10;36.90;;;34.30;;
6121;SDS011;3091;51.506;7.672;2023-04-01T02:46:36;39.60;;;37.00;;
6121;SDS011;3091;51.506;7.672;2023-04-01T02:49:03;38.80;;;36.20;;
6121;SDS011;3091;51.506;7.672;2023-04-01T02:51:29;39.00;;;36.40;;
6121;SDS011;3091;51.506;7.672;2023-04-01T02:53:55;39.47;;;36.87;;
6121;SDS011;3091;51.506;7.672;2023-04-01T02:56:21;40.10;;;37.50;;
6121;SDS011;3091;51.506;7.672;2023-04-01T02:58:47;40.50;;;37.80;;
6121;SDS011;3091;51.506;7.672;2023-04-01T03:01:14;39.30;;;36.60;;
6121;SDS011;3091;51.506;7.672;2023-04-01T03:03:40;39.10;;;36.30;;
6121;SDS011;3091;51.506;7.672;2023-04-01T03:06:06;43.80;;;40.70;;
6121;SDS011;3091;51.506;7.672;2023-04-01T03:08:33;48.43;;;45.37;;
6121;SDS011;3091;51.506;7.672;2023-04-01T03:10:59;53.00;;;49.80;;
6121;SDS011;3091;51.506;7.672;2023-04-01T03:13:25;55.33;;;52.03;;
6121;SDS011;3091;51.506;7.672;2023-04-01T03:15:51;53.83;;;50.63;;
6121;SDS011;3091;51.506;7.672;2023-04-01T03:18:18;52.70;;;49.50;;
6121;SDS011;3091;51.506;7.672;2023-04-01T03:20:44;54.23;;;51.00;;
6121;SDS011;3091;51.506;7.672;2023-04-01T03:23:10;55.07;;;51.77;;
6121;SDS011;3091;51.506;7.672;2023-04-01T03:25:36;47.67;;;44.57;;
6121;SDS011;3091;51.506;7.672;2023-04-01T03:28:02;50.17;;;46.97;;
6121;SDS011;3091;51.506;7.672;2023-04-01T03:30:28;51.83;;;48.67;;
6121;SDS011;3091;51.506;7.672;2023-04-01T03:32:58;51.70;;;48.50;;
6121;SDS011;3091;51.506;7.672;2023-04-01T03:35:25;51.90;;;48.70;;
6121;SDS011;3091;51.506;7.672;2023-04-01T03:37:52;51.80;;;48.60;;
6121;SDS011;3091;51.506;7.672;2023-04-01T03:40:18;52.20;;;49.00;;
6121;SDS011;3091;51.506;7.672;2023-04-01T03:42:44;50.57;;;47.47;;
6121;SDS011;3091;51.506;7.672;2023-04-01T03:45:10;46.47;;;43.57;;
6121;SDS011;3091;51.506;7.672;2023-04-01T03:47:37;44.73;;;41.83;;
6121;SDS011;3091;51.506;7.672;2023-04-01T03:50:03;39.43;;;36.73;;
6121;SDS011;3091;51.506;7.672;2023-04-01T03:52:30;38.37;;;35.67;;
6121;SDS011;3091;51.506;7.672;2023-04-01T03:54:56;39.90;;;37.20;;
6121;SDS011;3091;51.506;7.672;2023-04-01T03:57:22;39.53;;;36.83;;
6121;SDS011;3091;51.506;7.672;2023-04-01T03:59:48;40.50;;;37.80;;
6121;SDS011;3091;51.506;7.672;2023-04-01T04:02:14;38.57;;;35.87;;
6121;SDS011;3091;51.506;7.672;2023-04-01T04:04:40;38.97;;;36.27;;
6121;SDS011;3091;51.506;7.672;2023-04-01T04:07:06;38.60;;;35.90;;
6121;SDS011;3091;51.506;7.672;2023-04-01T04:09:32;38.43;;;35.77;;
6121;SDS011;3091;51.506;7.672;2023-04-01T04:11:58;36.67;;;34.07;;
6121;SDS011;3091;51.506;7.672;2023-04-01T04:14:24;39.50;;;36.90;;
6121;SDS011;3091;51.506;7.672;2023-04-01T04:16:50;37.07;;;34.57;;
6121;SDS011;3091;51.506;7.672;2023-04-01T04:19:16;37.10;;;34.60;;
6121;SDS011;3091;51.506;7.672;2023-04-01T04:21:42;34.83;;;32.53;;
6121;SDS011;3091;51.506;7.672;2023-04-01T04:24:08;34.53;;;32.23;;
6121;SDS011;3091;51.506;7.672;2023-04-01T04:26:35;34.23;;;31.93;;
6121;SDS011;3091;51.506;7.672;2023-04-01T04:29:01;33.60;;;31.40;;
6121;SDS011;3091;51.506;7.672;2023-04-01T04:31:27;33.63;;;31.43;;
6121;SDS011;3091;51.506;7.672;2023-04-01T04:33:53;32.53;;;30.33;;
6121;SDS011;3091;51.506;7.672;2023-04-01T04:36:20;31.30;;;29.20;;
6121;SDS011;3091;51.506;7.672;2023-04-01T04:38:46;28.33;;;26.33;;
6121;SDS011;3091;51.506;7.672;2023-04-01T04:41:13;29.00;;;27.00;;
6121;SDS011;3091;51.506;7.672;2023-04-01T04:43:40;28.63;;;26.63;;
6121;SDS011;3091;51.506;7.672;2023-04-01T04:46:09;28.17;;;26.17;;
6121;SDS011;3091;51.506;7.672;2023-04-01T04:48:35;27.63;;;25.73;;
6121;SDS011;3091;51.506;7.672;2023-04-01T04:51:01;27.80;;;25.90;;
6121;SDS011;3091;51.506;7.672;2023-04-01T04:53:28;27.97;;;25.97;;
6121;SDS011;3091;51.506;7.672;2023-04-01T04:55:56;29.63;;;27.53;;
6121;SDS011;3091;51.506;7.672;2023-04-01T04:58:22;28.70;;;26.70;;
6121;SDS011;3091;51.506;7.672;2023-04-01T05:00:48;28.77;;;26.77;;
6121;SDS011;3091;51.506;7.672;2023-04-01T05:03:14;30.60;;;28.60;;
6121;SDS011;3091;51.506;7.672;2023-04-01T05:05:47;31.23;;;29.13;;
6121;SDS011;3091;51.506;7.672;2023-04-01T05:08:13;30.37;;;28.37;;
6121;SDS011;3091;51.506;7.672;2023-04-01T05:10:39;31.27;;;29.17;;
6121;SDS011;3091;51.506;7.672;2023-04-01T05:13:05;32.07;;;29.87;;
6121;SDS011;3091;51.506;7.672;2023-04-01T05:15:33;32.10;;;29.90;;
6121;SDS011;3091;51.506;7.672;2023-04-01T05:18:00;31.40;;;29.20;;
6121;SDS011;3091;51.506;7.672;2023-04-01T05:20:26;31.30;;;29.10;;
6121;SDS011;3091;51.506;7.672;2023-04-01T05:22:56;31.30;;;29.10;;
6121;SDS011;3091;51.506;7.672;2023-04-01T05:25:22;30.93;;;28.73;;
6121;SDS011;3091;51.506;7.672;2023-04-01T05:27:50;31.50;;;29.30;;
6121;SDS011;3091;51.506;7.672;2023-04-01T05:30:17;31.80;;;29.60;;
6121;SDS011;3091;51.506;7.672;2023-04-01T05:32:43;32.20;;;29.90;;
6121;SDS011;3091;51.506;7.672;2023-04-01T05:35:09;31.57;;;29.37;;
6121;SDS011;3091;51.506;7.672;2023-04-01T05:37:36;31.07;;;28.87;;
6121;SDS011;3091;51.506;7.672;2023-04-01T05:40:02;32.17;;;29.97;;
6121;SDS011;3091;51.506;7.672;2023-04-01T05:42:29;32.57;;;30.37;;
6121;SDS011;3091;51.506;7.672;2023-04-01T05:44:55;33.10;;;30.80;;
6121;SDS011;3091;51.506;7.672;2023-04-01T05:47:21;32.80;;;30.60;;
6121;SDS011;3091;51.506;7.672;2023-04-01T05:49:47;33.07;;;30.77;;
6121;SDS011;3091;51.506;7.672;2023-04-01T05:52:13;33.47;;;31.27;;
6121;SDS011;3091;51.506;7.672;2023-04-01T05:54:39;32.87;;;30.67;;
6121;SDS011;3091;51.506;7.672;2023-04-01T05:57:05;34.33;;;32.03;;
6121;SDS011;3091;51.506;7.672;2023-04-01T05:59:31;33.37;;;31.17;;
6121;SDS011;3091;51.506;7.672;2023-04-01T06:01:59;34.20;;;31.90;;
6121;SDS011;3091;51.506;7.672;2023-04-01T06:04:26;34.10;;;31.80;;
6121;SDS011;3091;51.506;7.672;2023-04-01T06:06:57;34.37;;;32.07;;
6121;SDS011;3091;51.506;7.672;2023-04-01T06:09:27;32.83;;;30.53;;
6121;SDS011;3091;51.506;7.672;2023-04-01T06:14:41;33.73;;;31.43;;
6121;SDS011;3091;51.506;7.672;2023-04-01T06:20:12;36.17;;;33.67;;
6121;SDS011;3091;51.506;7.672;2023-04-01T06:22:57;35.43;;;33.03;;
6121;SDS011;3091;51.506;7.672;2023-04-01T06:30:41;39.63;;;37.03;;
6121;SDS011;3091;51.506;7.672;2023-04-01T06:33:30;38.27;;;35.67;;
6121;SDS011;3091;51.506;7.672;2023-04-01T06:36:08;40.33;;;37.63;;
6121;SDS011;3091;51.506;7.672;2023-04-01T06:49:54;40.77;;;37.97;;
6121;SDS011;3091;51.506;7.672;2023-04-01T06:51:52;39.10;;;36.37;;
6121;SDS011;3091;51.506;7.672;2023-04-01T06:54:21;44.20;;;41.30;;
6121;SDS011;3091;51.506;7.672;2023-04-01T06:56:52;46.37;;;43.40;;
6121;SDS011;3091;51.506;7.672;2023-04-01T06:59:24;47.87;;;44.87;;
6121;SDS011;3091;51.506;7.672;2023-04-01T07:04:23;47.60;;;44.50;;
6121;SDS011;3091;51.506;7.672;2023-04-01T07:09:18;47.67;;;44.57;;
6121;SDS011;3091;51.506;7.672;2023-04-01T07:11:45;51.70;;;48.40;;
6121;SDS011;3091;51.506;7.672;2023-04-01T07:14:22;52.60;;;49.30;;
6121;SDS011;3091;51.506;7.672;2023-04-01T07:19:52;55.20;;;51.70;;
6121;SDS011;3091;51.506;7.672;2023-04-01T07:24:56;55.70;;;52.20;;
6121;SDS011;3091;51.506;7.672;2023-04-01T07:27:23;56.30;;;52.90;;
6121;SDS011;3091;51.506;7.672;2023-04-01T07:29:49;53.57;;;50.07;;
6121;SDS011;3091;51.506;7.672;2023-04-01T07:32:21;54.20;;;50.90;;
6121;SDS011;3091;51.506;7.672;2023-04-01T07:35:08;61.13;;;57.63;;
6121;SDS011;3091;51.506;7.672;2023-04-01T07:40:37;56.63;;;53.23;;
6121;SDS011;3091;51.506;7.672;2023-04-01T07:43:15;56.17;;;52.87;;
6121;SDS011;3091;51.506;7.672;2023-04-01T07:48:22;53.20;;;49.80;;
6121;SDS011;3091;51.506;7.672;2023-04-01T07:51:03;52.47;;;49.07;;
6121;SDS011;3091;51.506;7.672;2023-04-01T07:53:57;54.00;;;50.60;;
6121;SDS011;3091;51.506;7.672;2023-04-01T07:56:26;51.67;;;48.37;;
6121;SDS011;3091;51.506;7.672;2023-04-01T08:06:45;53.47;;;50.27;;
6121;SDS011;3091;51.506;7.672;2023-04-01T08:14:36;51.03;;;47.80;;
6121;SDS011;3091;51.506;7.672;2023-04-01T08:17:23;51.80;;;48.30;;
6121;SDS011;3091;51.506;7.672;2023-04-01T08:22:30;51.77;;;48.40;;
6121;SDS011;3091;51.506;7.672;2023-04-01T08:25:00;54.47;;;50.97;;
6121;SDS011;3091;51.506;7.672;2023-04-01T08:32:57;62.90;;;59.17;;
6121;SDS011;3091;51.506;7.672;2023-04-01T08:35:30;61.30;;;57.70;;
6121;SDS011;3091;51.506;7.672;2023-04-01T08:37:59;58.80;;;55.30;;
6121;SDS011;3091;51.506;7.672;2023-04-01T08:43:16;60.10;;;56.50;;
6121;SDS011;3091;51.506;7.672;2023-04-01T08:45:56;57.20;;;53.70;;
6121;SDS011;3091;51.506;7.672;2023-04-01T08:48:41;59.40;;;55.90;;
6121;SDS011;3091;51.506;7.672;2023-04-01T08:51:12;56.67;;;53.27;;
6121;SDS011;3091;51.506;7.672;2023-04-01T08:58:51;58.07;;;54.47;;
6121;SDS011;3091;51.506;7.672;2023-04-01T09:06:37;67.63;;;63.73;;
6121;SDS011;3091;51.506;7.672;2023-04-01T09:19:33;63.60;;;60.00;;
6121;SDS011;3091;51.506;7.672;2023-04-01T09:27:50;60.53;;;56.83;;
6121;SDS011;3091;51.506;7.672;2023-04-01T09:30:28;59.50;;;55.90;;
6121;SDS011;3091;51.506;7.672;2023-04-01T09:35:39;57.00;;;53.50;;
6121;SDS011;3091;51.506;7.672;2023-04-01T09:43:57;52.77;;;49.47;;
6121;SDS011;3091;51.506;7.672;2023-04-01T09:49:14;57.90;;;54.40;;
6121;SDS011;3091;51.506;7.672;2023-04-01T09:51:48;58.17;;;54.67;;
6121;SDS011;3091;51.506;7.672;2023-04-01T09:54:31;63.83;;;60.13;;
6121;SDS011;3091;51.506;7.672;2023-04-01T10:20:45;56.50;;;53.10;;
6121;SDS011;3091;51.506;7.672;2023-04-01T10:26:01;54.43;;;51.13;;
6121;SDS011;3091;51.506;7.672;2023-04-01T10:39:07;64.83;;;61.23;;
6121;SDS011;3091;51.506;7.672;2023-04-01T11:41:36;75.20;;;71.10;;
6121;SDS011;3091;51.506;7.672;2023-04-01T11:46:57;77.03;;;73.03;;
6121;SDS011;3091;51.506;7.672;2023-04-01T11:49:33;77.60;;;73.50;;
6121;SDS011;3091;51.506;7.672;2023-04-01T12:10:21;62.83;;;59.13;;
6121;SDS011;3091;51.506;7.672;2023-04-01T12:23:06;58.40;;;54.90;;
6121;SDS011;3091;51.506;7.672;2023-04-01T12:28:14;55.97;;;52.57;;
6121;SDS011;3091;51.506;7.672;2023-04-01T12:45:52;73.50;;;69.60;;
6121;SDS011;3091;51.506;7.672;2023-04-01T12:55:42;73.67;;;69.87;;
6121;SDS011;3091;51.506;7.672;2023-04-01T13:03:40;72.03;;;68.17;;
6121;SDS011;3091;51.506;7.672;2023-04-01T13:06:20;74.50;;;70.50;;
6121;SDS011;3091;51.506;7.672;2023-04-01T13:14:32;53.03;;;49.83;;
6121;SDS011;3091;51.506;7.672;2023-04-01T13:17:04;53.37;;;50.10;;
6121;SDS011;3091;51.506;7.672;2023-04-01T13:19:38;53.37;;;50.07;;
6121;SDS011;3091;51.506;7.672;2023-04-01T13:55:19;42.57;;;39.73;;
6121;SDS011;3091;51.506;7.672;2023-04-01T13:57:57;44.60;;;41.70;;
6121;SDS011;3091;51.506;7.672;2023-04-01T14:03:30;45.90;;;43.00;;
6121;SDS011;3091;51.506;7.672;2023-04-01T14:08:47;46.83;;;43.80;;
6121;SDS011;3091;51.506;7.672;2023-04-01T14:14:01;47.07;;;44.13;;
6121;SDS011;3091;51.506;7.672;2023-04-01T14:22:06;49.83;;;46.73;;
6121;SDS011;3091;51.506;7.672;2023-04-01T14:27:25;53.03;;;49.73;;
6121;SDS011;3091;51.506;7.672;2023-04-01T14:35:32;59.47;;;56.07;;
6121;SDS011;3091;51.506;7.672;2023-04-01T14:46:09;58.07;;;54.77;;
6121;SDS011;3091;51.506;7.672;2023-04-01T14:48:55;60.43;;;57.03;;
6121;SDS011;3091;51.506;7.672;2023-04-01T14:51:28;60.50;;;57.00;;
6121;SDS011;3091;51.506;7.672;2023-04-01T14:59:09;60.03;;;56.73;;
6121;SDS011;3091;51.506;7.672;2023-04-01T15:01:37;67.50;;;63.40;;
6121;SDS011;3091;51.506;7.672;2023-04-01T15:12:20;63.67;;;60.27;;
6121;SDS011;3091;51.506;7.672;2023-04-01T15:14:57;61.20;;;57.80;;
6121;SDS011;3091;51.506;7.672;2023-04-01T15:23:11;59.13;;;55.73;;
6121;SDS011;3091;51.506;7.672;2023-04-01T15:25:43;56.63;;;53.33;;
6121;SDS011;3091;51.506;7.672;2023-04-01T15:41:15;49.90;;;46.90;;
6121;SDS011;3091;51.506;7.672;2023-04-01T15:43:46;48.97;;;45.97;;
6121;SDS011;3091;51.506;7.672;2023-04-01T15:48:49;52.77;;;49.57;;
6121;SDS011;3091;51.506;7.672;2023-04-01T15:51:21;54.93;;;51.63;;
6121;SDS011;3091;51.506;7.672;2023-04-01T15:56:38;51.00;;;47.80;;
6121;SDS011;3091;51.506;7.672;2023-04-01T16:06:56;49.43;;;46.23;;
6121;SDS011;3091;51.506;7.672;2023-04-01T16:09:34;46.80;;;43.80;;
6121;SDS011;3091;51.506;7.672;2023-04-01T16:12:07;46.10;;;43.10;;
6121;SDS011;3091;51.506;7.672;2023-04-01T16:19:59;52.57;;;49.17;;
6121;SDS011;3091;51.506;7.672;2023-04-01T16:27:58;48.80;;;45.70;;
6121;SDS011;3091;51.506;7.672;2023-04-01T16:35:31;42.47;;;39.67;;
6121;SDS011;3091;51.506;7.672;2023-04-01T16:40:57;43.23;;;40.43;;
6121;SDS011;3091;51.506;7.672;2023-04-01T16:43:26;40.80;;;38.00;;
6121;SDS011;3091;51.506;7.672;2023-04-01T16:51:21;42.70;;;39.90;;
6121;SDS011;3091;51.506;7.672;2023-04-01T16:53:49;42.37;;;39.57;;
6121;SDS011;3091;51.506;7.672;2023-04-01T16:56:20;39.70;;;36.90;;
6121;SDS011;3091;51.506;7.672;2023-04-01T17:01:17;40.73;;;37.83;;
6121;SDS011;3091;51.506;7.672;2023-04-01T17:03:49;41.47;;;38.60;;
6121;SDS011;3091;51.506;7.672;2023-04-01T17:14:52;41.10;;;37.93;;
6121;SDS011;3091;51.506;7.672;2023-04-01T17:17:23;39.03;;;36.33;;
6121;SDS011;3091;51.506;7.672;2023-04-01T17:25:14;42.27;;;39.33;;
6121;SDS011;3091;51.506;7.672;2023-04-01T17:35:35;39.40;;;36.80;;
6121;SDS011;3091;51.506;7.672;2023-04-01T17:38:05;40.57;;;37.97;;
6121;SDS011;3091;51.506;7.672;2023-04-01T17:40:36;37.77;;;35.07;;
6121;SDS011;3091;51.506;7.672;2023-04-01T17:51:12;41.80;;;39.07;;
6121;SDS011;3091;51.506;7.672;2023-04-01T17:53:54;42.97;;;40.17;;
6121;SDS011;3091;51.506;7.672;2023-04-01T17:56:34;41.63;;;38.80;;
6121;SDS011;3091;51.506;7.672;2023-04-01T17:59:16;42.53;;;39.83;;
6121;SDS011;3091;51.506;7.672;2023-04-01T18:01:54;42.60;;;39.90;;
6121;SDS011;3091;51.506;7.672;2023-04-01T18:04:49;40.87;;;38.27;;
6121;SDS011;3091;51.506;7.672;2023-04-01T18:13:01;38.73;;;36.23;;
6121;SDS011;3091;51.506;7.672;2023-04-01T18:25:48;41.10;;;38.50;;
6121;SDS011;3091;51.506;7.672;2023-04-01T18:30:57;38.77;;;36.17;;
6121;SDS011;3091;51.506;7.672;2023-04-01T18:33:31;38.37;;;35.77;;
6121;SDS011;3091;51.506;7.672;2023-04-01T18:36:03;40.27;;;37.33;;
6121;SDS011;3091;51.506;7.672;2023-04-01T18:38:36;38.90;;;36.40;;
6121;SDS011;3091;51.506;7.672;2023-04-01T18:43:43;39.33;;;36.73;;
6121;SDS011;3091;51.506;7.672;2023-04-01T18:46:36;41.50;;;38.80;;
6121;SDS011;3091;51.506;7.672;2023-04-01T18:49:13;40.40;;;37.70;;
6121;SDS011;3091;51.506;7.672;2023-04-01T18:51:50;41.87;;;39.07;;
6121;SDS011;3091;51.506;7.672;2023-04-01T18:54:24;39.97;;;37.13;;
6121;SDS011;3091;51.506;7.672;2023-04-01T18:56:59;38.70;;;36.10;;
6121;SDS011;3091;51.506;7.672;2023-04-01T19:06:59;36.63;;;34.13;;
6121;SDS011;3091;51.506;7.672;2023-04-01T19:09:46;36.27;;;33.77;;
6121;SDS011;3091;51.506;7.672;2023-04-01T19:27:37;39.60;;;36.90;;
6121;SDS011;3091;51.506;7.672;2023-04-01T19:38:08;40.03;;;37.43;;
6121;SDS011;3091;51.506;7.672;2023-04-01T19:40:51;40.27;;;37.67;;
6121;SDS011;3091;51.506;7.672;2023-04-01T19:49:02;46.40;;;43.30;;
6121;SDS011;3091;51.506;7.672;2023-04-01T19:59:37;44.10;;;41.20;;
6121;SDS011;3091;51.506;7.672;2023-04-01T20:09:33;44.70;;;41.80;;
6121;SDS011;3091;51.506;7.672;2023-04-01T20:14:44;45.00;;;42.20;;
6121;SDS011;3091;51.506;7.672;2023-04-01T20:19:43;46.23;;;43.13;;
6121;SDS011;3091;51.506;7.672;2023-04-01T20:25:15;40.97;;;38.17;;
6121;SDS011;3091;51.506;7.672;2023-04-01T20:27:45;40.20;;;37.50;;
6121;SDS011;3091;51.506;7.672;2023-04-01T20:38:11;51.30;;;48.10;;
6121;SDS011;3091;51.506;7.672;2023-04-01T20:40:51;51.23;;;48.03;;
6121;SDS011;3091;51.506;7.672;2023-04-01T20:43:33;48.07;;;45.07;;
6121;SDS011;3091;51.506;7.672;2023-04-01T20:51:30;42.50;;;39.60;;
6121;SDS011;3091;51.506;7.672;2023-04-01T20:56:47;47.70;;;44.53;;
6121;SDS011;3091;51.506;7.672;2023-04-01T20:59:30;51.37;;;48.07;;
6121;SDS011;3091;51.506;7.672;2023-04-01T21:12:56;37.47;;;34.97;;
6121;SDS011;3091;51.506;7.672;2023-04-01T21:20:41;32.50;;;30.30;;
6121;SDS011;3091;51.506;7.672;2023-04-01T21:25:50;32.57;;;30.27;;
6121;SDS011;3091;51.506;7.672;2023-04-01T21:31:21;32.73;;;30.57;;
6121;SDS011;3091;51.506;7.672;2023-04-01T21:36:33;32.20;;;30.00;;
6121;SDS011;3091;51.506;7.672;2023-04-01T21:41:38;31.67;;;29.57;;
6121;SDS011;3091;51.506;7.672;2023-04-01T21:44:27;32.20;;;30.10;;
6121;SDS011;3091;51.506;7.672;2023-04-01T21:50:09;31.30;;;29.20;;
6121;SDS011;3091;51.506;7.672;2023-04-01T21:55:41;29.87;;;27.77;;
6121;SDS011;3091;51.506;7.672;2023-04-01T21:58:24;32.10;;;29.83;;
6121;SDS011;3091;51.506;7.672;2023-04-01T22:11:33;32.67;;;30.47;;
6121;SDS011;3091;51.506;7.672;2023-04-01T22:14:05;32.67;;;30.47;;
6121;SDS011;3091;51.506;7.672;2023-04-01T22:24:30;30.47;;;28.47;;
6121;SDS011;3091;51.506;7.672;2023-04-01T22:29:35;33.50;;;31.20;;
6121;SDS011;3091;51.506;7.672;2023-04-01T22:32:05;34.30;;;32.00;;
6121;SDS011;3091;51.506;7.672;2023-04-01T22:46:56;32.70;;;30.20;;
6121;SDS011;3091;51.506;7.672;2023-04-01T22:49:34;32.90;;;30.60;;
6121;SDS011;3091;51.506;7.672;2023-04-01T22:54:59;32.93;;;30.53;;
6121;SDS011;3091;51.506;7.672;2023-04-01T23:02:22;32.50;;;30.27;;
6121;SDS011;3091;51.506;7.672;2023-04-01T23:04:54;33.67;;;31.37;;
6121;SDS011;3091;51.506;7.672;2023-04-01T23:09:50;34.77;;;32.27;;
6121;SDS011;3091;51.506;7.672;2023-04-01T23:12:19;32.37;;;30.17;;
6121;SDS011;3091;51.506;7.672;2023-04-01T23:14:50;33.77;;;31.47;;
6121;SDS011;3091;51.506;7.672;2023-04-01T23:19:51;36.27;;;33.73;;
6121;SDS011;3091;51.506;7.672;2023-04-01T23:27:59;35.97;;;33.57;;
6121;SDS011;3091;51.506;7.672;2023-04-01T23:35:47;36.30;;;33.87;;
6121;SDS011;3091;51.506;7.672;2023-04-01T23:38:14;35.20;;;32.80;;
6121;SDS011;3091;51.506;7.672;2023-04-01T23:40:40;35.67;;;33.07;;
6121;SDS011;3091;51.506;7.672;2023-04-01T23:43:14;35.90;;;33.60;;
6121;SDS011;3091;51.506;7.672;2023-04-01T23:45:41;34.83;;;32.63;;
6121;SDS011;3091;51.506;7.672;2023-04-01T23:48:10;33.27;;;31.17;;
6121;SDS011;3091;51.506;7.672;2023-04-01T23:50:36;33.47;;;31.07;;
6121;SDS011;3091;51.506;7.672;2023-04-01T23:53:16;32.87;;;30.60;;
6121;SDS011;3091;51.506;7.672;2023-04-01T23:55:43;34.80;;;32.50;;
